| time (UTC) | temp F | wind direction | speed MPH | gust MPH | rain 1hr in | rain 24hr in | rain mn in | humidity % | barometer mb |
| 20260509093603 | 61 | 301 | 4.0 | 9.0 | 0.00 | 0.00 | 0.00 | 32 | 1027.4 |
| 20260509092703 | 60 | 303 | 3.0 | 10.0 | 0.00 | 0.00 | 0.00 | 34 | 1027.4 |
| 20260509091803 | 60 | 296 | 2.0 | 7.0 | 0.00 | 0.00 | 0.00 | 35 | 1027.4 |
| 20260509090924 | 60 | 292 | 2.0 | 8.0 | 0.00 | 0.00 | 0.00 | 37 | 1027.4 |
| 20260509090003 | 59 | 292 | 0.0 | 4.0 | 0.00 | 0.00 | 0.00 | 39 | 1027.4 |
| 20260509085403 | 60 | 292 | 0.0 | 2.0 | 0.00 | 0.00 | 0.00 | 41 | 1027.4 |
| 20260509084503 | 60 | 292 | 0.0 | 3.0 | 0.00 | 0.00 | 0.00 | 40 | 1027.4 |
| 20260509083624 | 60 | 292 | 0.0 | 2.0 | 0.00 | 0.00 | 0.00 | 44 | 1027.4 |
| 20260509082703 | 61 | 292 | 0.0 | 2.0 | 0.00 | 0.00 | 0.00 | 44 | 1027.4 |
| 20260509081803 | 61 | 0 | 0.0 | 0.0 | 0.00 | 0.00 | 0.00 | 43 | 1027.4 |
| 20260509080903 | 62 | 0 | 0.0 | 0.0 | 0.00 | 0.00 | 0.00 | 41 | 1027.4 |
| 20260509080003 | 62 | 0 | 0.0 | 0.0 | 0.00 | 0.00 | 0.00 | 40 | 1027.4 |
| 20260509075403 | 62 | 0 | 0.0 | 0.0 | 0.00 | 0.00 | 0.00 | 40 | 1027.4 |
| 20260509074503 | 62 | 352 | 1.0 | 4.0 | 0.00 | 0.00 | 0.00 | 38 | 1027.4 |
| 20260509073603 | 62 | 352 | 1.0 | 4.0 | 0.00 | 0.00 | 0.00 | 38 | 1027.4 |
| 20260509072703 | 62 | 354 | 2.0 | 6.0 | 0.00 | 0.00 | 0.00 | 40 | 1027.4 |
| 20260509071803 | 61 | 352 | 2.0 | 8.0 | 0.00 | 0.00 | 0.00 | 42 | 1027.4 |
| 20260509070903 | 60 | 351 | 1.0 | 6.0 | 0.00 | 0.00 | 0.00 | 41 | 1027.4 |
| 20260509070003 | 60 | 360 | 0.0 | 2.0 | 0.00 | 0.00 | 0.00 | 40 | 1027.4 |
| 20260509065424 | 60 | 0 | 0.0 | 0.0 | 0.00 | 0.00 | 0.00 | 39 | 1027.4 |
| 20260509064503 | 61 | 360 | 0.0 | 1.0 | 0.00 | 0.00 | 0.00 | 39 | 1027.4 |
| 20260509063603 | 62 | 360 | 0.0 | 5.0 | 0.00 | 0.00 | 0.00 | 37 | 1027.4 |
| 20260509062703 | 62 | 0 | 0.0 | 0.0 | 0.00 | 0.00 | 0.00 | 37 | 1027.4 |
| 20260509061803 | 63 | 360 | 0.0 | 2.0 | 0.00 | 0.00 | 0.00 | 35 | 1027.4 |
| 20260509060903 | 63 | 331 | 0.0 | 1.0 | 0.00 | 0.00 | 0.00 | 34 | 1027.4 |
| 20260509060004 | 63 | 354 | 1.0 | 4.0 | 0.00 | 0.00 | 0.00 | 33 | 1027.4 |
| 20260509055403 | 62 | 358 | 2.0 | 6.0 | 0.00 | 0.00 | 0.00 | 34 | 1027.4 |
| 20260509054524 | 62 | 360 | 0.0 | 3.0 | 0.00 | 0.00 | 0.00 | 34 | 1027.4 |
| 20260509053603 | 62 | 360 | 0.0 | 2.0 | 0.00 | 0.00 | 0.00 | 34 | 1027.4 |
| 20260509052703 | 62 | 360 | 0.0 | 2.0 | 0.00 | 0.00 | 0.00 | 36 | 1027.4 |
| 20260509051803 | 63 | 360 | 1.0 | 4.0 | 0.00 | 0.00 | 0.00 | 35 | 1027.4 |
| 20260509050903 | 64 | 0 | 0.0 | 0.0 | 0.00 | 0.00 | 0.00 | 34 | 1027.4 |
| 20260509050025 | 64 | 360 | 1.0 | 5.0 | 0.00 | 0.00 | 0.00 | 32 | 1027.4 |
| 20260509045403 | 65 | 346 | 0.0 | 2.0 | 0.00 | 0.00 | 0.00 | 32 | 1027.4 |
| 20260509044503 | 65 | 360 | 0.0 | 3.0 | 0.00 | 0.00 | 0.00 | 31 | 1027.4 |
| 20260509043603 | 66 | 359 | 2.0 | 4.0 | 0.00 | 0.00 | 0.00 | 29 | 1027.4 |
| 20260509042703 | 66 | 360 | 2.0 | 5.0 | 0.00 | 0.00 | 0.00 | 29 | 1027.4 |
| 20260509041824 | 66 | 360 | 1.0 | 4.0 | 0.00 | 0.00 | 0.00 | 30 | 1027.4 |
| 20260509040903 | 67 | 360 | 1.0 | 3.0 | 0.00 | 0.00 | 0.00 | 30 | 1027.4 |
| 20260509040003 | 67 | 360 | 1.0 | 4.0 | 0.00 | 0.00 | 0.00 | 30 | 1027.4 |
| 20260509035403 | 67 | 360 | 1.0 | 4.0 | 0.00 | 0.00 | 0.00 | 30 | 1027.4 |
| 20260509034503 | 67 | 360 | 1.0 | 4.0 | 0.00 | 0.00 | 0.00 | 30 | 1027.4 |
| 20260509033603 | 67 | 360 | 1.0 | 3.0 | 0.00 | 0.00 | 0.00 | 30 | 1027.4 |
| 20260509032724 | 68 | 360 | 1.0 | 3.0 | 0.00 | 0.00 | 0.00 | 31 | 1027.4 |
| 20260509031803 | 68 | 360 | 0.0 | 1.0 | 0.00 | 0.00 | 0.00 | 30 | 1027.4 |
| 20260509030924 | 69 | 0 | 0.0 | 0.0 | 0.00 | 0.00 | 0.00 | 29 | 1027.4 |
| 20260509030003 | 71 | 0 | 0.0 | 0.0 | 0.00 | 0.00 | 0.00 | 28 | 1027.4 |
| 20260509025403 | 72 | 0 | 0.0 | 0.0 | 0.00 | 0.00 | 0.00 | 28 | 1027.4 |
| 20260509024524 | 74 | 0 | 0.0 | 0.0 | 0.00 | 0.00 | 0.00 | 23 | 1027.4 |
| 20260509023624 | 75 | 0 | 0.0 | 0.0 | 0.00 | 0.00 | 0.00 | 22 | 1027.4 |
| 20260509022703 | 75 | 360 | 0.0 | 1.0 | 0.00 | 0.00 | 0.00 | 22 | 1027.4 |
| 20260509021804 | 76 | 360 | 0.0 | 3.0 | 0.00 | 0.00 | 0.00 | 22 | 1027.4 |
| 20260509020903 | 76 | 360 | 0.0 | 1.0 | 0.00 | 0.00 | 0.00 | 21 | 1027.4 |
| 20260509020004 | 76 | 6 | 0.0 | 2.0 | 0.00 | 0.00 | 0.00 | 20 | 1027.4 |
| 20260509015403 | 77 | 47 | 0.0 | 1.0 | 0.00 | 0.00 | 0.00 | 20 | 1027.4 |
| 20260509014504 | 77 | 44 | 0.0 | 2.0 | 0.00 | 0.00 | 0.00 | 19 | 1027.4 |
| 20260509013604 | 77 | 45 | 0.0 | 3.0 | 0.00 | 0.00 | 0.00 | 19 | 1027.4 |
| 20260509012703 | 78 | 51 | 1.0 | 4.0 | 0.00 | 0.00 | 0.00 | 19 | 1027.4 |
| 20260509011824 | 78 | 47 | 2.0 | 5.0 | 0.00 | 0.00 | 0.00 | 18 | 1027.4 |
| 20260509010904 | 78 | 45 | 0.0 | 4.0 | 0.00 | 0.00 | 0.00 | 19 | 1027.4 |
| 20260509010004 | 78 | 49 | 2.0 | 4.0 | 0.00 | 0.00 | 0.00 | 18 | 1027.4 |
| 20260509005403 | 78 | 35 | 1.0 | 7.0 | 0.00 | 0.00 | 0.00 | 18 | 1027.4 |
| 20260509004503 | 78 | 356 | 3.0 | 9.0 | 0.00 | 0.00 | 0.00 | 18 | 1027.4 |
| 20260509003603 | 78 | 327 | 3.0 | 9.0 | 0.00 | 0.00 | 0.00 | 18 | 1027.4 |
| 20260509002704 | 78 | 347 | 3.0 | 9.0 | 0.00 | 0.00 | 0.00 | 18 | 1027.4 |
| 20260509001825 | 78 | 350 | 3.0 | 11.0 | 0.00 | 0.00 | 0.00 | 19 | 1027.4 |
| 20260509000903 | 79 | 336 | 3.0 | 8.0 | 0.00 | 0.00 | 0.00 | 18 | 1027.4 |
| 20260509000004 | 79 | 340 | 3.0 | 11.0 | 0.00 | 0.00 | 0.00 | 18 | 1027.4 |
| 20260508235403 | 79 | 321 | 5.0 | 15.0 | 0.00 | 0.00 | 0.00 | 19 | 1027.4 |
| 20260508234503 | 79 | 308 | 4.0 | 12.0 | 0.00 | 0.00 | 0.00 | 19 | 1027.4 |
| 20260508233603 | 78 | 326 | 5.0 | 11.0 | 0.00 | 0.00 | 0.00 | 18 | 1027.4 |
| 20260508232703 | 78 | 340 | 2.0 | 8.0 | 0.00 | 0.00 | 0.00 | 19 | 1027.4 |
| 20260508231824 | 78 | 341 | 5.0 | 14.0 | 0.00 | 0.00 | 0.00 | 21 | 1027.4 |
| 20260508230903 | 77 | 16 | 6.0 | 13.0 | 0.00 | 0.00 | 0.00 | 19 | 1027.4 |
| 20260508230003 | 77 | 349 | 6.0 | 14.0 | 0.00 | 0.00 | 0.00 | 19 | 1027.4 |
| 20260508225403 | 78 | 334 | 7.0 | 15.0 | 0.00 | 0.00 | 0.00 | 19 | 1027.4 |
| 20260508224525 | 77 | 335 | 6.0 | 15.0 | 0.00 | 0.00 | 0.00 | 20 | 1027.4 |
| 20260508223624 | 77 | 337 | 8.0 | 17.0 | 0.00 | 0.00 | 0.00 | 20 | 1027.4 |
| 20260508222703 | 78 | 345 | 6.0 | 14.0 | 0.00 | 0.00 | 0.00 | 19 | 1027.4 |
| 20260508221803 | 77 | 323 | 5.0 | 13.0 | 0.00 | 0.00 | 0.00 | 21 | 1027.4 |
| 20260508220903 | 77 | 351 | 6.0 | 15.0 | 0.00 | 0.00 | 0.00 | 21 | 1027.4 |
| 20260508220003 | 76 | 353 | 7.0 | 15.0 | 0.00 | 0.00 | 0.00 | 21 | 1027.4 |
| 20260508215403 | 77 | 324 | 8.0 | 15.0 | 0.00 | 0.00 | 0.00 | 20 | 1027.4 |
| 20260508214503 | 76 | 349 | 6.0 | 15.0 | 0.00 | 0.00 | 0.00 | 21 | 1027.4 |
| 20260508213603 | 77 | 344 | 6.0 | 14.0 | 0.00 | 0.00 | 0.00 | 20 | 1027.4 |
| 20260508212703 | 76 | 3 | 6.0 | 13.0 | 0.00 | 0.00 | 0.00 | 20 | 1027.4 |
| 20260508211803 | 76 | 21 | 7.0 | 15.0 | 0.00 | 0.00 | 0.00 | 21 | 1027.4 |
| 20260508210903 | 76 | 353 | 6.0 | 16.0 | 0.00 | 0.00 | 0.00 | 20 | 1027.4 |
| 20260508210003 | 76 | 347 | 7.0 | 15.0 | 0.00 | 0.00 | 0.00 | 22 | 1027.4 |
| 20260508205403 | 76 | 353 | 6.0 | 14.0 | 0.00 | 0.00 | 0.00 | 22 | 1027.4 |
| 20260508204503 | 75 | 10 | 6.0 | 17.0 | 0.00 | 0.00 | 0.00 | 22 | 1027.4 |
| 20260508203603 | 75 | 20 | 8.0 | 16.0 | 0.00 | 0.00 | 0.00 | 22 | 1027.4 |
| 20260508202724 | 75 | 22 | 8.0 | 15.0 | 0.00 | 0.00 | 0.00 | 21 | 1027.4 |
| 20260508201803 | 75 | 358 | 6.0 | 16.0 | 0.00 | 0.00 | 0.00 | 23 | 1027.4 |
| 20260508200903 | 75 | 346 | 9.0 | 16.0 | 0.00 | 0.00 | 0.00 | 22 | 1027.4 |
| 20260508200003 | 74 | 340 | 10.0 | 18.0 | 0.00 | 0.00 | 0.00 | 21 | 1027.4 |
| 20260508195403 | 75 | 338 | 8.0 | 18.0 | 0.00 | 0.00 | 0.00 | 21 | 1027.4 |
| 20260508194503 | 75 | 348 | 8.0 | 17.0 | 0.00 | 0.00 | 0.00 | 22 | 1027.4 |
| 20260508193603 | 75 | 341 | 7.0 | 17.0 | 0.00 | 0.00 | 0.00 | 23 | 1027.4 |
| 20260508192703 | 75 | 346 | 7.0 | 17.0 | 0.00 | 0.00 | 0.00 | 21 | 1027.4 |
| 20260508191803 | 74 | 342 | 10.0 | 18.0 | 0.00 | 0.00 | 0.00 | 22 | 1027.4 |
| 20260508190903 | 74 | 356 | 7.0 | 19.0 | 0.00 | 0.00 | 0.00 | 22 | 1027.4 |
| 20260508190004 | 74 | 344 | 9.0 | 19.0 | 0.00 | 0.00 | 0.00 | 22 | 1027.4 |
| 20260508185403 | 74 | 339 | 9.0 | 19.0 | 0.00 | 0.00 | 0.00 | 23 | 1027.4 |
| 20260508184504 | 74 | 330 | 9.0 | 20.0 | 0.00 | 0.00 | 0.00 | 25 | 1027.4 |
| 20260508183603 | 74 | 335 | 9.0 | 24.0 | 0.00 | 0.00 | 0.00 | 22 | 1027.4 |
| 20260508182703 | 74 | 332 | 9.0 | 18.0 | 0.00 | 0.00 | 0.00 | 24 | 1027.4 |
| 20260508181824 | 74 | 333 | 8.0 | 19.0 | 0.00 | 0.00 | 0.00 | 23 | 1027.4 |
| 20260508180903 | 74 | 332 | 10.0 | 18.0 | 0.00 | 0.00 | 0.00 | 24 | 1027.4 |
| 20260508180003 | 74 | 329 | 9.0 | 18.0 | 0.00 | 0.00 | 0.00 | 24 | 1027.4 |
| 20260508175403 | 74 | 347 | 8.0 | 16.0 | 0.00 | 0.00 | 0.00 | 24 | 1027.4 |
| 20260508174503 | 73 | 33 | 5.0 | 14.0 | 0.00 | 0.00 | 0.00 | 27 | 1027.4 |
| 20260508173603 | 73 | 12 | 5.0 | 11.0 | 0.00 | 0.00 | 0.00 | 27 | 1027.4 |
| 20260508172703 | 73 | 320 | 5.0 | 12.0 | 0.00 | 0.00 | 0.00 | 29 | 1027.4 |
| 20260508171803 | 72 | 342 | 5.0 | 11.0 | 0.00 | 0.00 | 0.00 | 29 | 1027.4 |
| 20260508170903 | 72 | 7 | 5.0 | 11.0 | 0.00 | 0.00 | 0.00 | 31 | 1027.4 |
| 20260508170024 | 71 | 12 | 6.0 | 13.0 | 0.00 | 0.00 | 0.00 | 30 | 1027.4 |
| 20260508165403 | 72 | 11 | 5.0 | 13.0 | 0.00 | 0.00 | 0.00 | 29 | 1027.4 |
| 20260508164524 | 72 | 17 | 4.0 | 10.0 | 0.00 | 0.00 | 0.00 | 28 | 1027.4 |
| 20260508163603 | 72 | 31 | 3.0 | 10.0 | 0.00 | 0.00 | 0.00 | 30 | 1027.4 |
| 20260508162703 | 71 | 19 | 2.0 | 9.0 | 0.00 | 0.00 | 0.00 | 32 | 1027.4 |
| 20260508161803 | 71 | 11 | 2.0 | 8.0 | 0.00 | 0.00 | 0.00 | 32 | 1027.4 |
| 20260508160924 | 72 | 27 | 3.0 | 8.0 | 0.00 | 0.00 | 0.00 | 31 | 1027.4 |
| 20260508160003 | 73 | 322 | 2.0 | 5.0 | 0.00 | 0.00 | 0.00 | 30 | 1027.4 |
| 20260508155403 | 73 | 146 | 1.0 | 5.0 | 0.00 | 0.00 | 0.00 | 31 | 1027.4 |
| 20260508154503 | 73 | 145 | 0.0 | 2.0 | 0.00 | 0.00 | 0.00 | 32 | 1027.4 |
| 20260508153603 | 73 | 145 | 0.0 | 3.0 | 0.00 | 0.00 | 0.00 | 35 | 1027.4 |
| 20260508152703 | 72 | 145 | 0.0 | 3.0 | 0.00 | 0.00 | 0.00 | 35 | 1027.4 |
| 20260508151803 | 70 | 145 | 0.0 | 2.0 | 0.00 | 0.00 | 0.00 | 40 | 1027.4 |
| 20260508150903 | 70 | 146 | 0.0 | 2.0 | 0.00 | 0.00 | 0.00 | 40 | 1027.4 |
| 20260508150004 | 69 | 146 | 0.0 | 2.0 | 0.00 | 0.00 | 0.00 | 40 | 1027.4 |
| 20260508145403 | 69 | 145 | 1.0 | 4.0 | 0.00 | 0.00 | 0.00 | 39 | 1027.4 |
| 20260508144503 | 69 | 175 | 0.0 | 5.0 | 0.00 | 0.00 | 0.00 | 38 | 1027.4 |
| 20260508143603 | 68 | 211 | 0.0 | 1.0 | 0.00 | 0.00 | 0.00 | 42 | 1027.4 |
| 20260508142703 | 67 | 211 | 0.0 | 1.0 | 0.00 | 0.00 | 0.00 | 41 | 1027.4 |
| 20260508141803 | 66 | 211 | 0.0 | 1.0 | 0.00 | 0.00 | 0.00 | 41 | 1027.4 |
| 20260508140924 | 66 | 360 | 0.0 | 1.0 | 0.00 | 0.00 | 0.00 | 40 | 1027.4 |
| 20260508140003 | 65 | 0 | 0.0 | 0.0 | 0.00 | 0.00 | 0.00 | 41 | 1027.4 |
| 20260508135403 | 63 | 0 | 0.0 | 0.0 | 0.00 | 0.00 | 0.00 | 44 | 1027.4 |
| 20260508134503 | 60 | 360 | 0.0 | 1.0 | 0.00 | 0.00 | 0.00 | 47 | 1027.4 |
| 20260508133603 | 57 | 360 | 0.0 | 1.0 | 0.00 | 0.00 | 0.00 | 52 | 1027.4 |
| 20260508132703 | 55 | 0 | 0.0 | 0.0 | 0.00 | 0.00 | 0.00 | 56 | 1027.4 |
| 20260508131824 | 52 | 0 | 0.0 | 0.0 | 0.00 | 0.00 | 0.00 | 59 | 1027.4 |
| 20260508130903 | 51 | 0 | 0.0 | 0.0 | 0.00 | 0.00 | 0.00 | 59 | 1027.4 |
| 20260508130003 | 51 | 350 | 0.0 | 2.0 | 0.00 | 0.00 | 0.00 | 59 | 1027.4 |
| 20260508125403 | 51 | 0 | 0.0 | 0.0 | 0.00 | 0.00 | 0.00 | 59 | 1027.4 |
| 20260508124524 | 50 | 0 | 0.0 | 0.0 | 0.00 | 0.00 | 0.00 | 59 | 1027.4 |
| 20260508123603 | 50 | 360 | 0.0 | 1.0 | 0.00 | 0.00 | 0.00 | 59 | 1027.4 |
| 20260508122703 | 50 | 0 | 0.0 | 0.0 | 0.00 | 0.00 | 0.00 | 59 | 1027.4 |
| 20260508121803 | 50 | 0 | 0.0 | 0.0 | 0.00 | 0.00 | 0.00 | 60 | 1027.4 |
| 20260508120924 | 50 | 0 | 0.0 | 0.0 | 0.00 | 0.00 | 0.00 | 60 | 1027.4 |
| 20260508120003 | 50 | 360 | 0.0 | 2.0 | 0.00 | 0.00 | 0.00 | 58 | 1027.4 |
| 20260508115403 | 51 | 360 | 0.0 | 4.0 | 0.00 | 0.00 | 0.00 | 58 | 1027.4 |
| 20260508114524 | 51 | 360 | 0.0 | 2.0 | 0.00 | 0.00 | 0.00 | 56 | 1027.4 |
| 20260508113603 | 51 | 0 | 0.0 | 0.0 | 0.00 | 0.00 | 0.00 | 56 | 1027.4 |
| 20260508112703 | 52 | 0 | 0.0 | 0.0 | 0.00 | 0.00 | 0.00 | 54 | 1027.4 |
| 20260508111803 | 52 | 360 | 0.0 | 3.0 | 0.00 | 0.00 | 0.00 | 53 | 1027.4 |
| 20260508110903 | 53 | 329 | 0.0 | 1.0 | 0.00 | 0.00 | 0.00 | 52 | 1027.4 |
| 20260508110003 | 53 | 0 | 0.0 | 0.0 | 0.00 | 0.00 | 0.00 | 51 | 1027.4 |
| 20260508105403 | 53 | 356 | 0.0 | 2.0 | 0.00 | 0.00 | 0.00 | 51 | 1027.4 |
| 20260508104503 | 53 | 357 | 0.0 | 2.0 | 0.00 | 0.00 | 0.00 | 53 | 1027.4 |
| 20260508103603 | 53 | 0 | 0.0 | 0.0 | 0.00 | 0.00 | 0.00 | 53 | 1027.4 |
| 20260508102703 | 53 | 0 | 0.0 | 0.0 | 0.00 | 0.00 | 0.00 | 54 | 1027.4 |
| 20260508101803 | 53 | 0 | 0.0 | 0.0 | 0.00 | 0.00 | 0.00 | 54 | 1027.4 |
| 20260508100903 | 52 | 0 | 0.0 | 0.0 | 0.00 | 0.00 | 0.00 | 54 | 1027.4 |
| 20260508100003 | 52 | 311 | 0.0 | 2.0 | 0.00 | 0.00 | 0.00 | 55 | 1027.4 |
| 20260508095403 | 52 | 211 | 1.0 | 3.0 | 0.00 | 0.00 | 0.00 | 56 | 1027.4 |
| 20260508094524 | 52 | 0 | 0.0 | 0.0 | 0.00 | 0.00 | 0.00 | 57 | 1027.4 |